sensor_id;sensor_type;location;lat;lon;timestamp;pressure;altitude;pressure_sealevel;temperature;humidity
35519;BME280;21627;48.216;16.482;2022-08-03T00:02:17;99995.38;;;19.66;100.00
35519;BME280;21627;48.216;16.482;2022-08-03T00:04:44;100012.75;;;19.71;100.00
35519;BME280;21627;48.216;16.482;2022-08-03T00:07:11;99998.13;;;19.62;100.00
35519;BME280;21627;48.216;16.482;2022-08-03T00:09:38;99993.88;;;19.58;100.00
35519;BME280;21627;48.216;16.482;2022-08-03T00:12:06;100010.50;;;19.58;100.00
35519;BME280;21627;48.216;16.482;2022-08-03T00:14:33;100010.66;;;19.54;100.00
35519;BME280;21627;48.216;16.482;2022-08-03T00:17:00;100004.69;;;19.49;100.00
35519;BME280;21627;48.216;16.482;2022-08-03T00:19:28;99999.75;;;19.39;100.00
35519;BME280;21627;48.216;16.482;2022-08-03T00:21:55;100011.91;;;19.42;100.00
35519;BME280;21627;48.216;16.482;2022-08-03T00:24:22;99999.81;;;19.38;100.00
35519;BME280;21627;48.216;16.482;2022-08-03T00:26:49;99995.53;;;19.35;100.00
35519;BME280;21627;48.216;16.482;2022-08-03T00:29:16;99988.84;;;19.25;100.00
35519;BME280;21627;48.216;16.482;2022-08-03T00:31:43;99975.13;;;19.17;100.00
35519;BME280;21627;48.216;16.482;2022-08-03T00:34:25;99991.56;;;19.22;100.00
35519;BME280;21627;48.216;16.482;2022-08-03T00:37:12;99999.50;;;19.20;100.00
35519;BME280;21627;48.216;16.482;2022-08-03T00:39:39;99996.94;;;19.17;100.00
35519;BME280;21627;48.216;16.482;2022-08-03T00:42:09;99987.66;;;19.07;100.00
35519;BME280;21627;48.216;16.482;2022-08-03T00:44:40;100004.06;;;19.14;100.00
35519;BME280;21627;48.216;16.482;2022-08-03T00:47:09;99982.56;;;19.02;100.00
35519;BME280;21627;48.216;16.482;2022-08-03T00:49:38;99992.09;;;19.05;100.00
35519;BME280;21627;48.216;16.482;2022-08-03T00:52:10;99994.78;;;19.02;100.00
35519;BME280;21627;48.216;16.482;2022-08-03T00:54:39;99991.41;;;19.00;100.00
35519;BME280;21627;48.216;16.482;2022-08-03T00:57:07;99989.66;;;18.99;100.00
35519;BME280;21627;48.216;16.482;2022-08-03T00:59:34;99996.72;;;18.97;100.00
35519;BME280;21627;48.216;16.482;2022-08-03T01:02:04;99972.59;;;18.86;100.00
35519;BME280;21627;48.216;16.482;2022-08-03T01:04:31;99998.50;;;18.95;100.00
35519;BME280;21627;48.216;16.482;2022-08-03T01:07:20;99984.84;;;18.85;100.00
35519;BME280;21627;48.216;16.482;2022-08-03T01:10:17;99995.16;;;18.90;100.00
35519;BME280;21627;48.216;16.482;2022-08-03T01:13:24;99979.75;;;18.80;100.00
35519;BME280;21627;48.216;16.482;2022-08-03T01:20:05;99994.75;;;18.75;100.00
35519;BME280;21627;48.216;16.482;2022-08-03T01:26:46;99987.91;;;18.70;100.00
35519;BME280;21627;48.216;16.482;2022-08-03T01:29:41;99990.59;;;18.67;100.00
35519;BME280;21627;48.216;16.482;2022-08-03T01:32:45;99990.69;;;18.64;100.00
35519;BME280;21627;48.216;16.482;2022-08-03T01:35:40;99987.25;;;18.62;100.00
35519;BME280;21627;48.216;16.482;2022-08-03T01:38:14;99990.06;;;18.55;100.00
35519;BME280;21627;48.216;16.482;2022-08-03T01:40:45;99988.38;;;18.53;100.00
35519;BME280;21627;48.216;16.482;2022-08-03T01:43:17;99988.41;;;18.51;100.00
35519;BME280;21627;48.216;16.482;2022-08-03T01:46:07;99994.69;;;18.46;100.00
35519;BME280;21627;48.216;16.482;2022-08-03T01:48:37;99991.25;;;18.44;100.00
35519;BME280;21627;48.216;16.482;2022-08-03T01:51:08;99993.13;;;18.40;100.00
35519;BME280;21627;48.216;16.482;2022-08-03T01:53:38;99996.63;;;18.39;100.00
35519;BME280;21627;48.216;16.482;2022-08-03T01:56:10;99991.53;;;18.34;100.00
35519;BME280;21627;48.216;16.482;2022-08-03T01:58:40;99987.44;;;18.24;100.00
35519;BME280;21627;48.216;16.482;2022-08-03T02:01:09;99991.72;;;18.27;100.00
35519;BME280;21627;48.216;16.482;2022-08-03T02:03:40;99987.53;;;18.21;100.00
35519;BME280;21627;48.216;16.482;2022-08-03T02:06:30;99995.44;;;18.20;100.00
35519;BME280;21627;48.216;16.482;2022-08-03T02:09:21;99978.19;;;18.12;100.00
35519;BME280;21627;48.216;16.482;2022-08-03T02:11:51;99994.75;;;18.13;100.00
35519;BME280;21627;48.216;16.482;2022-08-03T02:14:20;99989.69;;;18.07;100.00
35519;BME280;21627;48.216;16.482;2022-08-03T02:16:48;99981.84;;;18.07;100.00
35519;BME280;21627;48.216;16.482;2022-08-03T02:19:17;99981.22;;;17.97;100.00
35519;BME280;21627;48.216;16.482;2022-08-03T02:21:46;99995.91;;;18.01;100.00
35519;BME280;21627;48.216;16.482;2022-08-03T02:24:28;99989.06;;;17.97;100.00
35519;BME280;21627;48.216;16.482;2022-08-03T02:26:56;99992.56;;;17.96;100.00
35519;BME280;21627;48.216;16.482;2022-08-03T02:29:30;99976.25;;;17.86;100.00
35519;BME280;21627;48.216;16.482;2022-08-03T02:32:12;99989.13;;;17.94;100.00
35519;BME280;21627;48.216;16.482;2022-08-03T02:34:45;99979.75;;;17.87;100.00
35519;BME280;21627;48.216;16.482;2022-08-03T02:37:14;99983.16;;;17.89;100.00
35519;BME280;21627;48.216;16.482;2022-08-03T02:39:44;99966.13;;;17.72;100.00
35519;BME280;21627;48.216;16.482;2022-08-03T02:42:14;99993.78;;;17.83;100.00
35519;BME280;21627;48.216;16.482;2022-08-03T02:44:47;99988.66;;;17.80;100.00
35519;BME280;21627;48.216;16.482;2022-08-03T02:47:16;99991.25;;;17.78;100.00
35519;BME280;21627;48.216;16.482;2022-08-03T02:49:48;99983.47;;;17.77;100.00
35519;BME280;21627;48.216;16.482;2022-08-03T02:52:27;99984.34;;;17.76;100.00
35519;BME280;21627;48.216;16.482;2022-08-03T02:54:58;99997.44;;;17.76;100.00
35519;BME280;21627;48.216;16.482;2022-08-03T02:57:28;99996.56;;;17.75;100.00
35519;BME280;21627;48.216;16.482;2022-08-03T02:59:59;99990.59;;;17.70;100.00
35519;BME280;21627;48.216;16.482;2022-08-03T03:02:27;99992.31;;;17.71;100.00
35519;BME280;21627;48.216;16.482;2022-08-03T03:04:56;100000.22;;;17.69;100.00
35519;BME280;21627;48.216;16.482;2022-08-03T03:07:44;99984.75;;;17.60;100.00
35519;BME280;21627;48.216;16.482;2022-08-03T03:10:21;99986.50;;;17.60;100.00
35519;BME280;21627;48.216;16.482;2022-08-03T03:12:56;99991.66;;;17.63;100.00
35519;BME280;21627;48.216;16.482;2022-08-03T03:15:26;99999.53;;;17.61;100.00
35519;BME280;21627;48.216;16.482;2022-08-03T03:17:54;99976.44;;;17.44;100.00
35519;BME280;21627;48.216;16.482;2022-08-03T03:20:23;99996.31;;;17.51;100.00
35519;BME280;21627;48.216;16.482;2022-08-03T03:22:58;99987.63;;;17.49;100.00
35519;BME280;21627;48.216;16.482;2022-08-03T03:25:29;99992.78;;;17.52;100.00
35519;BME280;21627;48.216;16.482;2022-08-03T03:28:01;100005.03;;;17.50;100.00
35519;BME280;21627;48.216;16.482;2022-08-03T03:30:29;100005.00;;;17.52;100.00
35519;BME280;21627;48.216;16.482;2022-08-03T03:32:57;99997.28;;;17.46;100.00
35519;BME280;21627;48.216;16.482;2022-08-03T03:35:26;99994.72;;;17.44;100.00
35519;BME280;21627;48.216;16.482;2022-08-03T03:37:53;100008.50;;;17.51;100.00
35519;BME280;21627;48.216;16.482;2022-08-03T03:40:21;100005.97;;;17.48;100.00
35519;BME280;21627;48.216;16.482;2022-08-03T03:42:49;100009.47;;;17.47;100.00
35519;BME280;21627;48.216;16.482;2022-08-03T03:45:17;100003.41;;;17.45;100.00
35519;BME280;21627;48.216;16.482;2022-08-03T03:47:44;99999.22;;;17.38;100.00
35519;BME280;21627;48.216;16.482;2022-08-03T03:50:12;100006.31;;;17.34;100.00
35519;BME280;21627;48.216;16.482;2022-08-03T03:52:41;100008.81;;;17.39;100.00
35519;BME280;21627;48.216;16.482;2022-08-03T03:55:08;100012.31;;;17.38;100.00
35519;BME280;21627;48.216;16.482;2022-08-03T03:57:35;100003.72;;;17.33;100.00
35519;BME280;21627;48.216;16.482;2022-08-03T04:00:03;99994.16;;;17.32;100.00
35519;BME280;21627;48.216;16.482;2022-08-03T04:02:32;100015.78;;;17.38;100.00
35519;BME280;21627;48.216;16.482;2022-08-03T04:04:59;100002.94;;;17.29;100.00
35519;BME280;21627;48.216;16.482;2022-08-03T04:08:02;100021.94;;;17.36;100.00
35519;BME280;21627;48.216;16.482;2022-08-03T04:11:20;100018.47;;;17.35;100.00
35519;BME280;21627;48.216;16.482;2022-08-03T04:14:13;100028.94;;;17.34;100.00
35519;BME280;21627;48.216;16.482;2022-08-03T04:17:04;100028.06;;;17.35;100.00
35519;BME280;21627;48.216;16.482;2022-08-03T04:19:41;100018.56;;;17.30;100.00
35519;BME280;21627;48.216;16.482;2022-08-03T04:22:13;100015.94;;;17.30;100.00
35519;BME280;21627;48.216;16.482;2022-08-03T04:24:48;100028.91;;;17.35;100.00
35519;BME280;21627;48.216;16.482;2022-08-03T04:27:21;100021.09;;;17.34;100.00
35519;BME280;21627;48.216;16.482;2022-08-03T04:29:52;100019.38;;;17.34;100.00
35519;BME280;21627;48.216;16.482;2022-08-03T04:32:22;100019.38;;;17.34;100.00
35519;BME280;21627;48.216;16.482;2022-08-03T04:34:52;100049.56;;;17.46;100.00
35519;BME280;21627;48.216;16.482;2022-08-03T04:37:41;100031.28;;;17.46;100.00
35519;BME280;21627;48.216;16.482;2022-08-03T04:40:18;100037.25;;;17.51;100.00
35519;BME280;21627;48.216;16.482;2022-08-03T04:42:48;100044.13;;;17.55;100.00
35519;BME280;21627;48.216;16.482;2022-08-03T04:45:16;100042.44;;;17.54;100.00
35519;BME280;21627;48.216;16.482;2022-08-03T04:47:45;100048.31;;;17.62;100.00
35519;BME280;21627;48.216;16.482;2022-08-03T04:50:13;100031.03;;;17.57;100.00
35519;BME280;21627;48.216;16.482;2022-08-03T04:52:47;100033.50;;;17.63;100.00
35519;BME280;21627;48.216;16.482;2022-08-03T04:55:31;100037.69;;;17.68;100.00
35519;BME280;21627;48.216;16.482;2022-08-03T04:58:00;100042.72;;;17.78;100.00
35519;BME280;21627;48.216;16.482;2022-08-03T05:00:28;100048.75;;;17.81;100.00
35519;BME280;21627;48.216;16.482;2022-08-03T05:02:55;100039.19;;;17.79;100.00
35519;BME280;21627;48.216;16.482;2022-08-03T05:05:23;100053.75;;;17.90;100.00
35519;BME280;21627;48.216;16.482;2022-08-03T05:07:50;100050.28;;;17.90;100.00
35519;BME280;21627;48.216;16.482;2022-08-03T05:10:18;100053.47;;;18.01;100.00
35519;BME280;21627;48.216;16.482;2022-08-03T05:12:47;100057.75;;;18.05;100.00
35519;BME280;21627;48.216;16.482;2022-08-03T05:15:15;100050.63;;;18.10;100.00
35519;BME280;21627;48.216;16.482;2022-08-03T05:17:42;100050.53;;;18.13;100.00
35519;BME280;21627;48.216;16.482;2022-08-03T05:20:10;100048.72;;;18.17;100.00
35519;BME280;21627;48.216;16.482;2022-08-03T05:22:37;100062.28;;;18.31;100.00
35519;BME280;21627;48.216;16.482;2022-08-03T05:25:05;100063.97;;;18.34;100.00
35519;BME280;21627;48.216;16.482;2022-08-03T05:27:32;100068.97;;;18.43;100.00
35519;BME280;21627;48.216;16.482;2022-08-03T05:29:59;100069.72;;;18.47;100.00
35519;BME280;21627;48.216;16.482;2022-08-03T05:32:46;100063.38;;;18.55;100.00
35519;BME280;21627;48.216;16.482;2022-08-03T05:35:14;100071.03;;;18.63;100.00
35519;BME280;21627;48.216;16.482;2022-08-03T05:38:02;100057.94;;;18.63;100.00
35519;BME280;21627;48.216;16.482;2022-08-03T05:40:29;100058.66;;;18.68;100.00
35519;BME280;21627;48.216;16.482;2022-08-03T05:42:57;100071.44;;;18.80;100.00
35519;BME280;21627;48.216;16.482;2022-08-03T05:45:24;100067.78;;;18.86;100.00
35519;BME280;21627;48.216;16.482;2022-08-03T05:47:54;100076.16;;;18.97;100.00
35519;BME280;21627;48.216;16.482;2022-08-03T05:50:21;100070.03;;;18.98;100.00
35519;BME280;21627;48.216;16.482;2022-08-03T05:52:49;100072.44;;;19.06;100.00
35519;BME280;21627;48.216;16.482;2022-08-03T05:55:17;100066.97;;;19.14;100.00
35519;BME280;21627;48.216;16.482;2022-08-03T05:57:45;100059.72;;;19.22;100.00
35519;BME280;21627;48.216;16.482;2022-08-03T06:00:16;100072.41;;;19.36;100.00
35519;BME280;21627;48.216;16.482;2022-08-03T06:02:44;100064.44;;;19.39;100.00
35519;BME280;21627;48.216;16.482;2022-08-03T06:05:11;100073.75;;;19.49;100.00
35519;BME280;21627;48.216;16.482;2022-08-03T06:07:38;100068.22;;;19.58;100.00
35519;BME280;21627;48.216;16.482;2022-08-03T06:10:07;100068.91;;;19.63;100.00
35519;BME280;21627;48.216;16.482;2022-08-03T06:12:54;100055.72;;;19.65;100.00
35519;BME280;21627;48.216;16.482;2022-08-03T06:15:21;100065.06;;;19.75;100.00
35519;BME280;21627;48.216;16.482;2022-08-03T06:17:50;100064.09;;;19.78;100.00
35519;BME280;21627;48.216;16.482;2022-08-03T06:20:21;100072.41;;;19.91;98.51
35519;BME280;21627;48.216;16.482;2022-08-03T06:22:53;100074.00;;;19.96;98.41
35519;BME280;21627;48.216;16.482;2022-08-03T06:25:27;100071.13;;;20.04;98.88
35519;BME280;21627;48.216;16.482;2022-08-03T06:27:54;100071.59;;;20.15;97.50
35519;BME280;21627;48.216;16.482;2022-08-03T06:30:22;100065.50;;;20.15;97.18
35519;BME280;21627;48.216;16.482;2022-08-03T06:32:49;100072.13;;;20.25;95.99
35519;BME280;21627;48.216;16.482;2022-08-03T06:35:18;100077.19;;;20.31;97.20
35519;BME280;21627;48.216;16.482;2022-08-03T06:37:48;100075.97;;;20.41;96.96
35519;BME280;21627;48.216;16.482;2022-08-03T06:40:21;100076.56;;;20.48;96.40
35519;BME280;21627;48.216;16.482;2022-08-03T06:42:56;100085.88;;;20.58;95.40
35519;BME280;21627;48.216;16.482;2022-08-03T06:45:24;100084.63;;;20.68;94.22
35519;BME280;21627;48.216;16.482;2022-08-03T06:48:11;100088.63;;;20.79;93.87
35519;BME280;21627;48.216;16.482;2022-08-03T06:50:40;100087.13;;;20.96;86.39
35519;BME280;21627;48.216;16.482;2022-08-03T06:53:08;100092.88;;;21.06;86.08
35519;BME280;21627;48.216;16.482;2022-08-03T06:55:47;100085.78;;;21.08;87.38
35519;BME280;21627;48.216;16.482;2022-08-03T06:58:20;100086.34;;;21.16;86.83
35519;BME280;21627;48.216;16.482;2022-08-03T07:00:47;100071.44;;;21.17;87.88
35519;BME280;21627;48.216;16.482;2022-08-03T07:03:15;100073.78;;;21.25;87.99
35519;BME280;21627;48.216;16.482;2022-08-03T07:05:43;100088.91;;;21.42;86.54
35519;BME280;21627;48.216;16.482;2022-08-03T07:08:13;100084.44;;;21.44;82.96
35519;BME280;21627;48.216;16.482;2022-08-03T07:10:40;100103.09;;;21.59;78.94
35519;BME280;21627;48.216;16.482;2022-08-03T07:13:08;100085.47;;;21.61;82.47
35519;BME280;21627;48.216;16.482;2022-08-03T07:15:35;100096.28;;;21.77;81.63
35519;BME280;21627;48.216;16.482;2022-08-03T07:18:20;100095.63;;;21.93;80.68
35519;BME280;21627;48.216;16.482;2022-08-03T07:20:57;100098.81;;;22.01;79.05
35519;BME280;21627;48.216;16.482;2022-08-03T07:23:24;100093.22;;;22.09;79.35
35519;BME280;21627;48.216;16.482;2022-08-03T07:25:51;100084.00;;;22.19;74.70
35519;BME280;21627;48.216;16.482;2022-08-03T07:28:19;100088.59;;;22.36;73.99
35519;BME280;21627;48.216;16.482;2022-08-03T07:30:46;100093.22;;;22.50;73.52
35519;BME280;21627;48.216;16.482;2022-08-03T07:33:13;100088.56;;;22.56;73.97
35519;BME280;21627;48.216;16.482;2022-08-03T07:35:41;100093.53;;;22.62;72.03
35519;BME280;21627;48.216;16.482;2022-08-03T07:38:08;100079.59;;;22.60;73.94
35519;BME280;21627;48.216;16.482;2022-08-03T07:40:35;100094.59;;;22.79;75.59
35519;BME280;21627;48.216;16.482;2022-08-03T07:43:02;100089.75;;;22.88;76.61
35519;BME280;21627;48.216;16.482;2022-08-03T07:45:30;100086.50;;;23.02;76.87
35519;BME280;21627;48.216;16.482;2022-08-03T07:47:58;100076.09;;;23.18;71.15
35519;BME280;21627;48.216;16.482;2022-08-03T07:50:25;100080.72;;;23.32;68.37
35519;BME280;21627;48.216;16.482;2022-08-03T07:52:52;100089.75;;;23.45;67.30
35519;BME280;21627;48.216;16.482;2022-08-03T07:55:24;100077.78;;;23.57;68.65
35519;BME280;21627;48.216;16.482;2022-08-03T07:58:09;100082.69;;;23.65;66.87
35519;BME280;21627;48.216;16.482;2022-08-03T08:00:38;100082.97;;;23.78;68.68
35519;BME280;21627;48.216;16.482;2022-08-03T08:03:05;100070.75;;;23.75;69.83
35519;BME280;21627;48.216;16.482;2022-08-03T08:05:33;100085.84;;;23.90;68.83
35519;BME280;21627;48.216;16.482;2022-08-03T08:08:01;100078.53;;;24.13;63.86
35519;BME280;21627;48.216;16.482;2022-08-03T08:10:30;100063.88;;;24.07;65.23
35519;BME280;21627;48.216;16.482;2022-08-03T08:12:58;100082.34;;;24.25;67.18
35519;BME280;21627;48.216;16.482;2022-08-03T08:15:26;100086.22;;;24.35;66.62
35519;BME280;21627;48.216;16.482;2022-08-03T08:17:57;100085.47;;;24.50;66.67
35519;BME280;21627;48.216;16.482;2022-08-03T08:20:31;100085.66;;;24.63;60.46
35519;BME280;21627;48.216;16.482;2022-08-03T08:23:07;100072.72;;;24.74;60.47
35519;BME280;21627;48.216;16.482;2022-08-03T08:25:54;100080.53;;;24.93;60.03
35519;BME280;21627;48.216;16.482;2022-08-03T08:28:22;100080.53;;;24.93;62.33
35519;BME280;21627;48.216;16.482;2022-08-03T08:31:00;100081.72;;;25.03;61.22
35519;BME280;21627;48.216;16.482;2022-08-03T08:33:27;100084.41;;;25.19;56.65
35519;BME280;21627;48.216;16.482;2022-08-03T08:36:14;100084.16;;;25.40;56.45
35519;BME280;21627;48.216;16.482;2022-08-03T08:38:42;100087.31;;;25.46;53.60
35519;BME280;21627;48.216;16.482;2022-08-03T08:41:12;100084.22;;;25.54;56.01
35519;BME280;21627;48.216;16.482;2022-08-03T08:43:42;100088.91;;;25.65;54.41
35519;BME280;21627;48.216;16.482;2022-08-03T08:46:12;100076.69;;;25.78;53.38
35519;BME280;21627;48.216;16.482;2022-08-03T08:48:52;100079.53;;;26.05;52.73
35519;BME280;21627;48.216;16.482;2022-08-03T08:51:21;100073.69;;;26.15;49.58
35519;BME280;21627;48.216;16.482;2022-08-03T08:53:52;100089.81;;;26.26;48.39
35519;BME280;21627;48.216;16.482;2022-08-03T08:56:24;100079.88;;;26.29;49.67
35519;BME280;21627;48.216;16.482;2022-08-03T08:58:57;100080.94;;;26.41;50.68
35519;BME280;21627;48.216;16.482;2022-08-03T09:01:25;100078.22;;;26.57;50.90
35519;BME280;21627;48.216;16.482;2022-08-03T09:03:53;100079.38;;;26.67;50.36
35519;BME280;21627;48.216;16.482;2022-08-03T09:06:22;100086.00;;;26.74;48.42
35519;BME280;21627;48.216;16.482;2022-08-03T09:08:49;100071.91;;;26.74;47.32
35519;BME280;21627;48.216;16.482;2022-08-03T09:11:21;100082.13;;;26.94;47.15
35519;BME280;21627;48.216;16.482;2022-08-03T09:14:10;100083.53;;;27.00;46.89
35519;BME280;21627;48.216;16.482;2022-08-03T09:17:02;100082.19;;;27.07;47.19
35519;BME280;21627;48.216;16.482;2022-08-03T09:19:32;100068.91;;;27.07;46.39
35519;BME280;21627;48.216;16.482;2022-08-03T09:22:10;100075.94;;;27.23;46.36
35519;BME280;21627;48.216;16.482;2022-08-03T09:25:11;100072.78;;;27.30;45.08
35519;BME280;21627;48.216;16.482;2022-08-03T09:27:51;100077.38;;;27.41;45.14
35519;BME280;21627;48.216;16.482;2022-08-03T09:30:18;100058.41;;;27.47;44.11
35519;BME280;21627;48.216;16.482;2022-08-03T09:33:09;100071.19;;;27.55;44.28
35519;BME280;21627;48.216;16.482;2022-08-03T09:35:47;100070.91;;;27.59;44.16
35519;BME280;21627;48.216;16.482;2022-08-03T09:38:24;100054.53;;;27.66;46.09
35519;BME280;21627;48.216;16.482;2022-08-03T09:40:55;100048.81;;;27.72;45.34
35519;BME280;21627;48.216;16.482;2022-08-03T09:43:27;100055.16;;;27.83;45.47
35519;BME280;21627;48.216;16.482;2022-08-03T09:46:03;100052.19;;;27.88;45.09
35519;BME280;21627;48.216;16.482;2022-08-03T09:48:31;100060.94;;;28.03;45.17
35519;BME280;21627;48.216;16.482;2022-08-03T09:51:04;100057.63;;;28.12;41.99
35519;BME280;21627;48.216;16.482;2022-08-03T09:53:51;100047.34;;;28.33;42.90
35519;BME280;21627;48.216;16.482;2022-08-03T09:56:40;100053.28;;;28.37;43.66
35519;BME280;21627;48.216;16.482;2022-08-03T09:59:21;100040.84;;;28.37;43.68
35519;BME280;21627;48.216;16.482;2022-08-03T10:01:49;100046.28;;;28.61;41.78
35519;BME280;21627;48.216;16.482;2022-08-03T10:04:16;100056.41;;;28.69;43.87
35519;BME280;21627;48.216;16.482;2022-08-03T10:09:28;100039.56;;;28.81;43.47
35519;BME280;21627;48.216;16.482;2022-08-03T10:11:55;100043.47;;;28.88;42.28
35519;BME280;21627;48.216;16.482;2022-08-03T10:14:23;100036.97;;;28.92;41.82
35519;BME280;21627;48.216;16.482;2022-08-03T10:16:56;100033.75;;;29.00;39.03
35519;BME280;21627;48.216;16.482;2022-08-03T10:19:23;100022.38;;;28.98;38.27
35519;BME280;21627;48.216;16.482;2022-08-03T10:21:55;100011.59;;;29.12;40.99
35519;BME280;21627;48.216;16.482;2022-08-03T10:24:28;100022.66;;;29.19;39.21
35519;BME280;21627;48.216;16.482;2022-08-03T10:27:02;100024.56;;;29.17;38.90
35519;BME280;21627;48.216;16.482;2022-08-03T10:29:41;100026.44;;;29.28;40.93
35519;BME280;21627;48.216;16.482;2022-08-03T10:32:47;100022.03;;;29.40;40.03
35519;BME280;21627;48.216;16.482;2022-08-03T10:35:20;100009.78;;;29.37;38.87
35519;BME280;21627;48.216;16.482;2022-08-03T10:37:54;100010.19;;;29.44;35.98
35519;BME280;21627;48.216;16.482;2022-08-03T10:40:28;100013.38;;;29.60;35.98
35519;BME280;21627;48.216;16.482;2022-08-03T10:43:24;100011.00;;;29.68;37.95
35519;BME280;21627;48.216;16.482;2022-08-03T10:45:52;100002.81;;;29.71;38.23
35519;BME280;21627;48.216;16.482;2022-08-03T10:48:19;100006.91;;;29.75;36.24
35519;BME280;21627;48.216;16.482;2022-08-03T10:50:48;100017.38;;;29.90;35.52
35519;BME280;21627;48.216;16.482;2022-08-03T10:53:34;100017.66;;;29.98;37.03
35519;BME280;21627;48.216;16.482;2022-08-03T10:56:04;100014.53;;;30.04;35.90
35519;BME280;21627;48.216;16.482;2022-08-03T10:59:10;99994.34;;;29.77;36.88
35519;BME280;21627;48.216;16.482;2022-08-03T11:01:53;100002.81;;;29.47;37.23
35519;BME280;21627;48.216;16.482;2022-08-03T11:04:28;99995.66;;;29.48;38.72
35519;BME280;21627;48.216;16.482;2022-08-03T11:09:45;100000.06;;;29.95;36.11
35519;BME280;21627;48.216;16.482;2022-08-03T11:12:32;99993.78;;;30.08;35.54
35519;BME280;21627;48.216;16.482;2022-08-03T11:15:05;99995.75;;;30.17;34.22
35519;BME280;21627;48.216;16.482;2022-08-03T11:17:35;99997.00;;;30.24;33.29
35519;BME280;21627;48.216;16.482;2022-08-03T11:20:48;99998.47;;;30.39;34.18
35519;BME280;21627;48.216;16.482;2022-08-03T11:23:18;99985.13;;;30.39;34.26
35519;BME280;21627;48.216;16.482;2022-08-03T11:26:19;99989.09;;;30.56;32.15
35519;BME280;21627;48.216;16.482;2022-08-03T11:28:48;99991.78;;;30.68;31.88
35519;BME280;21627;48.216;16.482;2022-08-03T11:34:13;99994.41;;;30.79;31.41
35519;BME280;21627;48.216;16.482;2022-08-03T11:37:35;99985.44;;;30.91;32.14
35519;BME280;21627;48.216;16.482;2022-08-03T11:40:04;99977.69;;;30.88;33.61
35519;BME280;21627;48.216;16.482;2022-08-03T11:45:06;99965.50;;;31.07;31.79
35519;BME280;21627;48.216;16.482;2022-08-03T11:47:37;99976.88;;;31.20;31.98
35519;BME280;21627;48.216;16.482;2022-08-03T11:50:18;99978.44;;;31.22;32.03
35519;BME280;21627;48.216;16.482;2022-08-03T11:52:47;99969.06;;;31.28;32.81
35519;BME280;21627;48.216;16.482;2022-08-03T11:55:17;99967.09;;;31.41;32.46
35519;BME280;21627;48.216;16.482;2022-08-03T11:57:47;99965.88;;;31.45;31.40
35519;BME280;21627;48.216;16.482;2022-08-03T12:00:34;99971.03;;;31.58;30.83
35519;BME280;21627;48.216;16.482;2022-08-03T12:03:10;99972.53;;;31.51;30.88
35519;BME280;21627;48.216;16.482;2022-08-03T12:05:52;99961.44;;;31.56;31.03
35519;BME280;21627;48.216;16.482;2022-08-03T12:10:56;99961.25;;;31.68;32.36
35519;BME280;21627;48.216;16.482;2022-08-03T12:13:23;99967.63;;;31.77;31.90
35519;BME280;21627;48.216;16.482;2022-08-03T12:16:24;99971.66;;;31.92;29.97
35519;BME280;21627;48.216;16.482;2022-08-03T12:19:04;99970.78;;;32.03;30.92
35519;BME280;21627;48.216;16.482;2022-08-03T12:21:33;99961.88;;;32.03;31.24
35519;BME280;21627;48.216;16.482;2022-08-03T12:24:02;99960.97;;;32.14;30.97
35519;BME280;21627;48.216;16.482;2022-08-03T12:26:45;99959.25;;;32.33;29.10
35519;BME280;21627;48.216;16.482;2022-08-03T12:29:25;99952.78;;;32.36;29.83
35519;BME280;21627;48.216;16.482;2022-08-03T12:31:53;99954.78;;;32.44;28.88
35519;BME280;21627;48.216;16.482;2022-08-03T12:34:22;99949.59;;;32.52;28.12
35519;BME280;21627;48.216;16.482;2022-08-03T12:36:52;99948.59;;;32.53;29.11
35519;BME280;21627;48.216;16.482;2022-08-03T12:39:23;99955.97;;;32.61;29.18
35519;BME280;21627;48.216;16.482;2022-08-03T12:41:55;99925.13;;;32.66;29.18
35519;BME280;21627;48.216;16.482;2022-08-03T12:44:33;99940.34;;;32.75;29.23
35519;BME280;21627;48.216;16.482;2022-08-03T12:47:03;99935.59;;;32.89;28.34
35519;BME280;21627;48.216;16.482;2022-08-03T12:49:47;99939.81;;;33.01;30.51
35519;BME280;21627;48.216;16.482;2022-08-03T12:52:17;99928.47;;;33.09;29.34
35519;BME280;21627;48.216;16.482;2022-08-03T12:54:56;99940.16;;;33.17;29.84
35519;BME280;21627;48.216;16.482;2022-08-03T12:57:24;99937.47;;;33.27;28.01
35519;BME280;21627;48.216;16.482;2022-08-03T12:59:51;99939.44;;;33.35;28.36
35519;BME280;21627;48.216;16.482;2022-08-03T13:02:24;99934.78;;;33.37;28.17
35519;BME280;21627;48.216;16.482;2022-08-03T13:04:53;99926.16;;;33.43;29.07
35519;BME280;21627;48.216;16.482;2022-08-03T13:07:21;99928.44;;;33.48;27.93
35519;BME280;21627;48.216;16.482;2022-08-03T13:09:52;99927.16;;;33.61;28.22
35519;BME280;21627;48.216;16.482;2022-08-03T13:12:26;99921.53;;;33.65;28.38
35519;BME280;21627;48.216;16.482;2022-08-03T13:14:58;99923.06;;;33.77;27.84
35519;BME280;21627;48.216;16.482;2022-08-03T13:17:26;99926.56;;;33.77;28.23
35519;BME280;21627;48.216;16.482;2022-08-03T13:19:54;99919.63;;;33.85;26.83
35519;BME280;21627;48.216;16.482;2022-08-03T13:22:25;99922.97;;;33.96;26.30
35519;BME280;21627;48.216;16.482;2022-08-03T13:24:55;99922.66;;;33.99;26.60
35519;BME280;21627;48.216;16.482;2022-08-03T13:27:24;99916.03;;;34.13;27.37
35519;BME280;21627;48.216;16.482;2022-08-03T13:30:12;99910.78;;;34.12;25.94
35519;BME280;21627;48.216;16.482;2022-08-03T13:32:46;99916.78;;;34.33;26.16
35519;BME280;21627;48.216;16.482;2022-08-03T13:35:13;99909.88;;;34.31;24.47